Time;durP1;ratioP1;P1;durP2;ratioP2;P2;SDS_P1;SDS_P2;PMS_P1;PMS_P2;Temp;Humidity;BMP_temperature;BMP_pressure;BME280_temperature;BME280_humidity;BME280_pressure;Samples;Min_cycle;Max_cycle;Signal;HPM_P1;HPM_P2
2023/05/04 00:02:02;;;;;;;6.07;3.03;;;;;;;;;;5026610;28;20593;-40
2023/05/04 00:04:27;;;;;;;3.95;2.38;;;;;;;;;;5023454;28;20064;-42
2023/05/04 00:06:53;;;;;;;3.65;2.33;;;;;;;;;;5025087;28;20113;-41
2023/05/04 00:09:18;;;;;;;3.92;2.65;;;;;;;;;;5023520;28;20025;-40
2023/05/04 00:11:44;;;;;;;2.78;2.40;;;;;;;;;;5021502;28;20065;-45
2023/05/04 00:14:09;;;;;;;8.15;2.50;;;;;;;;;;5021183;28;20041;-41
2023/05/04 00:16:35;;;;;;;2.47;2.28;;;;;;;;;;5019968;28;20160;-40
2023/05/04 00:19:00;;;;;;;8.30;2.80;;;;;;;;;;5022186;28;20065;-42
2023/05/04 00:21:26;;;;;;;3.35;2.47;;;;;;;;;;5022646;28;20429;-42
2023/05/04 00:23:51;;;;;;;2.55;2.35;;;;;;;;;;5023705;28;20021;-40
2023/05/04 00:26:17;;;;;;;7.05;2.80;;;;;;;;;;5024222;28;20041;-40
2023/05/04 00:28:42;;;;;;;3.55;2.40;;;;;;;;;;5021008;28;20087;-41
2023/05/04 00:31:07;;;;;;;2.20;2.05;;;;;;;;;;5021330;28;20061;-41
2023/05/04 00:33:33;;;;;;;4.70;2.47;;;;;;;;;;5021458;28;20083;-41
2023/05/04 00:35:58;;;;;;;3.65;2.55;;;;;;;;;;5022633;28;20553;-42
2023/05/04 00:38:23;;;;;;;3.42;2.40;;;;;;;;;;5022797;28;20021;-41
2023/05/04 00:40:49;;;;;;;5.45;2.28;;;;;;;;;;5022588;28;20029;-41
2023/05/04 00:43:14;;;;;;;3.00;2.70;;;;;;;;;;5023832;28;20395;-40
2023/05/04 00:45:40;;;;;;;3.03;2.25;;;;;;;;;;5022932;28;22366;-41
2023/05/04 00:48:06;;;;;;;3.75;1.83;;;;;;;;;;5024900;28;20040;-41
2023/05/04 00:50:31;;;;;;;4.95;2.35;;;;;;;;;;5021120;28;20045;-41
2023/05/04 00:53:00;;;;;;;3.08;2.20;;;;;;;;;;5025584;28;20034;-42
2023/05/04 00:55:25;;;;;;;3.20;2.20;;;;;;;;;;5019013;28;20026;-40
2023/05/04 00:57:51;;;;;;;2.45;2.10;;;;;;;;;;5022749;28;20056;-41
2023/05/04 01:00:17;;;;;;;2.08;1.88;;;;;;;;;;5023942;28;20112;-41
2023/05/04 01:02:43;;;;;;;4.13;2.15;;;;;;;;;;5021901;28;20022;-41
2023/05/04 01:05:09;;;;;;;2.50;2.30;;;;;;;;;;5025372;28;20104;-44
2023/05/04 01:08:12;;;;;;;2.55;1.80;;;;;;;;;;5019608;28;20037;-40
2023/05/04 01:10:42;;;;;;;3.00;2.33;;;;;;;;;;4945201;28;20038;-41
2023/05/04 01:13:11;;;;;;;2.38;1.95;;;;;;;;;;4942523;28;20051;-43
2023/05/04 01:15:38;;;;;;;4.38;2.60;;;;;;;;;;4946224;28;20042;-44
2023/05/04 01:18:03;;;;;;;3.72;2.20;;;;;;;;;;4946500;28;20031;-41
2023/05/04 01:20:29;;;;;;;3.13;2.10;;;;;;;;;;4943206;28;20126;-41
2023/05/04 01:22:55;;;;;;;2.63;2.13;;;;;;;;;;4943669;28;20106;-40
2023/05/04 01:25:20;;;;;;;7.55;1.98;;;;;;;;;;4939769;28;20126;-40
2023/05/04 01:27:53;;;;;;;2.67;2.28;;;;;;;;;;4944414;28;20035;-40
2023/05/04 01:30:42;;;;;;;2.55;1.98;;;;;;;;;;4945684;28;20035;-41
2023/05/04 01:33:07;;;;;;;3.03;1.80;;;;;;;;;;4944940;28;20147;-41
2023/05/04 01:35:33;;;;;;;1.95;1.83;;;;;;;;;;4946752;28;20138;-41
2023/05/04 01:37:58;;;;;;;1.80;1.70;;;;;;;;;;4946151;28;20074;-40
2023/05/04 01:40:24;;;;;;;4.35;2.00;;;;;;;;;;4944191;28;20158;-41
2023/05/04 01:42:49;;;;;;;1.70;1.60;;;;;;;;;;4945423;28;20040;-41
2023/05/04 01:45:15;;;;;;;3.08;1.90;;;;;;;;;;4955627;28;20035;-41
2023/05/04 01:47:40;;;;;;;6.28;2.55;;;;;;;;;;5024350;28;20041;-41
2023/05/04 01:50:06;;;;;;;3.33;1.80;;;;;;;;;;5023027;28;20091;-41
2023/05/04 01:52:32;;;;;;;2.33;1.83;;;;;;;;;;5018502;28;20061;-41
2023/05/04 01:54:57;;;;;;;2.42;1.60;;;;;;;;;;5020549;28;20433;-41
2023/05/04 01:57:23;;;;;;;4.70;1.55;;;;;;;;;;5017784;28;20121;-40
2023/05/04 01:59:48;;;;;;;2.00;1.90;;;;;;;;;;5024647;28;20378;-41
2023/05/04 02:02:13;;;;;;;2.83;2.05;;;;;;;;;;5019960;28;20033;-41
2023/05/04 02:04:40;;;;;;;4.45;1.90;;;;;;;;;;5023540;28;20056;-43
2023/05/04 02:07:06;;;;;;;2.58;1.80;;;;;;;;;;5022932;28;20042;-40
2023/05/04 02:09:31;;;;;;;4.63;1.75;;;;;;;;;;5021803;28;20091;-40
2023/05/04 02:11:56;;;;;;;2.42;1.70;;;;;;;;;;5020811;28;21037;-40
2023/05/04 02:14:22;;;;;;;3.03;2.00;;;;;;;;;;5018085;28;20029;-40
2023/05/04 02:16:47;;;;;;;3.60;1.80;;;;;;;;;;5022992;28;20064;-42
2023/05/04 02:19:12;;;;;;;2.53;1.65;;;;;;;;;;5019547;28;20033;-42
2023/05/04 02:21:41;;;;;;;1.80;1.70;;;;;;;;;;5021387;28;20040;-40
2023/05/04 02:24:06;;;;;;;2.33;1.70;;;;;;;;;;5023033;28;20890;-40
2023/05/04 02:26:31;;;;;;;4.88;1.85;;;;;;;;;;5022032;28;20129;-41
2023/05/04 02:28:57;;;;;;;1.80;1.60;;;;;;;;;;5021474;28;20447;-40
2023/05/04 02:31:23;;;;;;;1.70;1.60;;;;;;;;;;5022899;28;20047;-41
2023/05/04 02:33:49;;;;;;;2.90;1.80;;;;;;;;;;5021857;28;20030;-40
2023/05/04 02:36:14;;;;;;;2.05;1.38;;;;;;;;;;5025835;28;20061;-41
2023/05/04 02:38:40;;;;;;;1.92;1.70;;;;;;;;;;5022085;28;20505;-41
2023/05/04 02:41:05;;;;;;;2.92;1.60;;;;;;;;;;5022604;28;20061;-41
2023/05/04 02:43:31;;;;;;;1.70;1.60;;;;;;;;;;5025958;28;20052;-40
2023/05/04 02:45:56;;;;;;;1.90;1.80;;;;;;;;;;5024192;28;20030;-40
2023/05/04 02:48:23;;;;;;;3.00;1.65;;;;;;;;;;5023250;28;20036;-40
2023/05/04 02:50:48;;;;;;;3.08;1.60;;;;;;;;;;5022941;28;20049;-40
2023/05/04 02:53:14;;;;;;;2.35;1.50;;;;;;;;;;5021713;28;20052;-41
2023/05/04 02:55:39;;;;;;;4.78;1.80;;;;;;;;;;5025315;28;20398;-41
2023/05/04 02:58:05;;;;;;;1.98;1.85;;;;;;;;;;5025179;28;20076;-41
2023/05/04 03:00:30;;;;;;;3.35;1.75;;;;;;;;;;5023470;28;20104;-40
2023/05/04 03:02:56;;;;;;;1.65;1.55;;;;;;;;;;5025199;28;20389;-41
2023/05/04 03:05:21;;;;;;;3.28;1.75;;;;;;;;;;5023871;28;20030;-40
2023/05/04 03:07:46;;;;;;;1.95;1.58;;;;;;;;;;5024528;28;20036;-40
2023/05/04 03:10:12;;;;;;;1.70;1.52;;;;;;;;;;5019672;28;20088;-41
2023/05/04 03:12:37;;;;;;;1.70;1.60;;;;;;;;;;5023510;28;20025;-41
2023/05/04 03:15:03;;;;;;;1.98;1.60;;;;;;;;;;5024956;28;20446;-41
2023/05/04 03:17:28;;;;;;;1.60;1.50;;;;;;;;;;5025326;28;20033;-41
2023/05/04 03:19:54;;;;;;;4.95;1.70;;;;;;;;;;5025281;28;20036;-43
2023/05/04 03:22:19;;;;;;;2.40;1.70;;;;;;;;;;5025120;28;20120;-42
2023/05/04 03:24:44;;;;;;;4.50;1.75;;;;;;;;;;5024237;28;20513;-40
2023/05/04 03:27:10;;;;;;;3.85;1.58;;;;;;;;;;5022633;28;20068;-41
2023/05/04 03:29:35;;;;;;;3.42;1.55;;;;;;;;;;5024086;28;20109;-40
2023/05/04 03:32:00;;;;;;;6.00;1.73;;;;;;;;;;5023187;28;20452;-44
2023/05/04 03:34:26;;;;;;;3.10;1.67;;;;;;;;;;5023505;28;20022;-41
2023/05/04 03:36:52;;;;;;;4.32;1.50;;;;;;;;;;5025094;28;20038;-40
2023/05/04 03:39:17;;;;;;;5.20;1.40;;;;;;;;;;5021828;28;20032;-43
2023/05/04 03:41:43;;;;;;;2.80;1.60;;;;;;;;;;5021710;28;20065;-41
2023/05/04 03:44:08;;;;;;;3.60;1.80;;;;;;;;;;5022778;28;20041;-46
2023/05/04 03:46:33;;;;;;;2.03;1.88;;;;;;;;;;5024102;28;20503;-46
2023/05/04 03:48:59;;;;;;;1.77;1.67;;;;;;;;;;5019581;28;20037;-42
2023/05/04 03:51:24;;;;;;;1.75;1.65;;;;;;;;;;5021654;28;20056;-42
2023/05/04 03:53:50;;;;;;;1.70;1.60;;;;;;;;;;5021679;28;20041;-41
2023/05/04 03:56:15;;;;;;;4.60;1.92;;;;;;;;;;5023686;28;20030;-41
2023/05/04 03:58:41;;;;;;;4.15;2.00;;;;;;;;;;5023824;28;20422;-44
2023/05/04 04:01:06;;;;;;;3.08;1.77;;;;;;;;;;5018000;28;20506;-40
2023/05/04 04:03:32;;;;;;;3.10;1.60;;;;;;;;;;5025246;28;20061;-46
2023/05/04 04:05:57;;;;;;;1.70;1.60;;;;;;;;;;5019132;28;20065;-45
2023/05/04 04:08:23;;;;;;;2.72;1.85;;;;;;;;;;5019086;28;20033;-41
2023/05/04 04:10:48;;;;;;;3.30;1.70;;;;;;;;;;5022969;28;20092;-41
2023/05/04 04:13:14;;;;;;;1.77;1.63;;;;;;;;;;5023129;28;20114;-41
2023/05/04 04:15:39;;;;;;;1.60;1.50;;;;;;;;;;5022415;28;20037;-41
2023/05/04 04:18:05;;;;;;;5.63;1.83;;;;;;;;;;5020789;28;20029;-41
2023/05/04 04:20:31;;;;;;;3.88;1.95;;;;;;;;;;5022220;28;20045;-41
2023/05/04 04:22:56;;;;;;;2.58;1.65;;;;;;;;;;5023416;28;21241;-47
2023/05/04 04:25:23;;;;;;;5.30;1.60;;;;;;;;;;5021667;28;20030;-41
2023/05/04 04:27:48;;;;;;;2.08;1.70;;;;;;;;;;5025051;28;20014;-40
2023/05/04 04:30:14;;;;;;;6.55;1.88;;;;;;;;;;5025500;28;20032;-40
2023/05/04 04:32:39;;;;;;;4.78;1.80;;;;;;;;;;5021399;28;20795;-43
2023/05/04 04:35:05;;;;;;;1.88;1.63;;;;;;;;;;5022187;28;20025;-44
2023/05/04 04:37:31;;;;;;;1.77;1.67;;;;;;;;;;5021648;28;20053;-46
2023/05/04 04:39:56;;;;;;;3.10;1.70;;;;;;;;;;5018731;28;20033;-40
2023/05/04 04:42:21;;;;;;;6.43;1.88;;;;;;;;;;5023223;28;20493;-40
2023/05/04 04:44:48;;;;;;;3.92;1.80;;;;;;;;;;5020247;28;20030;-40
2023/05/04 04:47:15;;;;;;;3.25;1.85;;;;;;;;;;5022148;28;20388;-41
2023/05/04 04:49:40;;;;;;;4.32;1.35;;;;;;;;;;5022158;28;20022;-44
2023/05/04 04:52:06;;;;;;;2.20;1.70;;;;;;;;;;5022838;28;20506;-44
2023/05/04 04:54:31;;;;;;;2.80;1.60;;;;;;;;;;5022178;28;20033;-41
2023/05/04 04:56:58;;;;;;;4.60;1.77;;;;;;;;;;5021350;28;20050;-42
2023/05/04 04:59:23;;;;;;;1.63;1.52;;;;;;;;;;5020084;28;20034;-45
2023/05/04 05:01:49;;;;;;;5.00;2.13;;;;;;;;;;5020736;28;20537;-45
2023/05/04 05:04:14;;;;;;;2.63;1.60;;;;;;;;;;5020964;28;20037;-41
2023/05/04 05:06:40;;;;;;;10.52;1.95;;;;;;;;;;5022387;28;20038;-41
2023/05/04 05:09:06;;;;;;;4.78;1.55;;;;;;;;;;5022580;28;20390;-40
2023/05/04 05:11:32;;;;;;;3.95;1.95;;;;;;;;;;5015398;28;20049;-41
2023/05/04 05:13:58;;;;;;;2.75;1.75;;;;;;;;;;5022279;28;20033;-46
2023/05/04 05:16:24;;;;;;;2.50;1.70;;;;;;;;;;5019543;28;20048;-41
2023/05/04 05:18:49;;;;;;;2.85;1.70;;;;;;;;;;5023538;28;20030;-43
2023/05/04 05:21:15;;;;;;;1.80;1.70;;;;;;;;;;5020051;28;20514;-43
2023/05/04 05:23:40;;;;;;;4.68;1.60;;;;;;;;;;5019876;28;20103;-43
2023/05/04 05:26:06;;;;;;;2.10;1.60;;;;;;;;;;5021846;28;20052;-42
2023/05/04 05:28:31;;;;;;;3.17;1.63;;;;;;;;;;5020407;28;20043;-43
2023/05/04 05:30:56;;;;;;;2.42;1.40;;;;;;;;;;5018929;28;20025;-41
2023/05/04 05:33:22;;;;;;;4.63;1.70;;;;;;;;;;5021896;28;20749;-42
2023/05/04 05:35:48;;;;;;;7.63;1.63;;;;;;;;;;5021423;28;20036;-42
2023/05/04 05:38:15;;;;;;;4.38;1.60;;;;;;;;;;5017435;28;20033;-43
2023/05/04 05:40:40;;;;;;;1.73;1.55;;;;;;;;;;5023265;28;20537;-41
2023/05/04 05:43:06;;;;;;;5.28;2.20;;;;;;;;;;5023881;28;20026;-47
2023/05/04 05:45:31;;;;;;;2.25;1.88;;;;;;;;;;5021208;28;20144;-41
2023/05/04 05:47:56;;;;;;;3.20;1.75;;;;;;;;;;5022767;28;20091;-44
2023/05/04 05:50:22;;;;;;;1.55;1.30;;;;;;;;;;5022585;28;20036;-41
2023/05/04 05:52:48;;;;;;;5.82;1.55;;;;;;;;;;5023240;28;20022;-47
2023/05/04 05:55:17;;;;;;;3.47;1.77;;;;;;;;;;5021719;28;20026;-44
2023/05/04 05:57:42;;;;;;;2.15;1.60;;;;;;;;;;5020716;28;20479;-41
2023/05/04 06:00:08;;;;;;;4.38;1.90;;;;;;;;;;5020901;28;20030;-45
2023/05/04 06:02:33;;;;;;;3.47;1.65;;;;;;;;;;5017545;28;20501;-44
2023/05/04 06:04:59;;;;;;;4.45;1.77;;;;;;;;;;5022185;28;20041;-40
2023/05/04 06:07:24;;;;;;;3.92;2.03;;;;;;;;;;5018127;28;20309;-43
2023/05/04 06:09:50;;;;;;;2.78;1.83;;;;;;;;;;5025787;28;20134;-42
2023/05/04 06:12:16;;;;;;;5.63;2.10;;;;;;;;;;5021913;28;20041;-43
2023/05/04 06:14:42;;;;;;;4.18;2.10;;;;;;;;;;5025927;28;20022;-44
2023/05/04 06:17:07;;;;;;;2.05;1.52;;;;;;;;;;5023431;28;20037;-40
2023/05/04 06:19:35;;;;;;;6.03;2.03;;;;;;;;;;5025028;28;20485;-44
2023/05/04 06:22:00;;;;;;;6.40;1.80;;;;;;;;;;5023315;28;20045;-44
2023/05/04 06:24:26;;;;;;;5.05;2.60;;;;;;;;;;5025046;28;20386;-42
2023/05/04 06:26:51;;;;;;;3.10;2.80;;;;;;;;;;5023173;28;20570;-41
2023/05/04 06:29:17;;;;;;;4.28;2.33;;;;;;;;;;5025863;28;20405;-44
2023/05/04 06:31:44;;;;;;;6.35;2.35;;;;;;;;;;5025938;28;20113;-41
2023/05/04 06:34:10;;;;;;;1.88;1.77;;;;;;;;;;5026593;28;20017;-45
2023/05/04 06:36:35;;;;;;;5.45;1.60;;;;;;;;;;5024463;28;20088;-41
2023/05/04 06:39:01;;;;;;;4.90;1.70;;;;;;;;;;5025520;28;20033;-41
2023/05/04 06:41:26;;;;;;;5.35;1.27;;;;;;;;;;5022488;28;20120;-43
2023/05/04 06:43:51;;;;;;;6.35;1.80;;;;;;;;;;5023447;28;20445;-41
2023/05/04 06:46:17;;;;;;;8.32;1.75;;;;;;;;;;5022798;28;20048;-46
2023/05/04 06:48:42;;;;;;;1.52;1.42;;;;;;;;;;5020038;28;20482;-43
2023/05/04 06:51:08;;;;;;;2.60;1.73;;;;;;;;;;5025348;28;20092;-43
2023/05/04 06:53:33;;;;;;;3.58;1.70;;;;;;;;;;5027383;28;20083;-50
2023/05/04 06:55:59;;;;;;;7.32;1.60;;;;;;;;;;5023201;28;20648;-49
2023/05/04 06:58:24;;;;;;;2.58;1.85;;;;;;;;;;5024485;28;20746;-47
2023/05/04 07:00:51;;;;;;;9.60;1.63;;;;;;;;;;5022513;28;20041;-45
2023/05/04 07:03:17;;;;;;;2.60;1.60;;;;;;;;;;5024671;28;20462;-44
2023/05/04 07:05:44;;;;;;;5.10;1.45;;;;;;;;;;5025246;28;20501;-47
2023/05/04 07:08:09;;;;;;;1.23;1.23;;;;;;;;;;5024314;28;20464;-45
2023/05/04 07:10:35;;;;;;;3.65;1.63;;;;;;;;;;5025744;28;20065;-42
2023/05/04 07:13:00;;;;;;;2.15;1.30;;;;;;;;;;5025599;28;20038;-43
2023/05/04 07:15:26;;;;;;;2.97;1.17;;;;;;;;;;5022711;28;20083;-47
2023/05/04 07:17:51;;;;;;;1.50;1.20;;;;;;;;;;5024696;28;20029;-41
2023/05/04 07:20:17;;;;;;;3.47;1.20;;;;;;;;;;5022150;28;20091;-41
2023/05/04 07:22:42;;;;;;;3.33;1.38;;;;;;;;;;5025949;28;20029;-47
2023/05/04 07:25:08;;;;;;;8.23;1.27;;;;;;;;;;5027237;28;20029;-43
2023/05/04 07:27:34;;;;;;;3.97;1.50;;;;;;;;;;5022921;28;20046;-42
2023/05/04 07:30:01;;;;;;;6.78;1.73;;;;;;;;;;5026044;28;20039;-45
2023/05/04 07:32:26;;;;;;;2.42;1.10;;;;;;;;;;5022780;28;20049;-42
2023/05/04 07:34:51;;;;;;;6.07;1.10;;;;;;;;;;5023908;28;20018;-48
2023/05/04 07:37:17;;;;;;;3.47;1.30;;;;;;;;;;5022113;28;20029;-47
2023/05/04 07:39:43;;;;;;;2.10;1.38;;;;;;;;;;5023652;28;20018;-48
2023/05/04 07:42:10;;;;;;;5.78;1.58;;;;;;;;;;5020286;28;20053;-45
2023/05/04 07:44:36;;;;;;;4.43;1.20;;;;;;;;;;5025106;28;20022;-47
2023/05/04 07:47:01;;;;;;;6.00;1.35;;;;;;;;;;5026356;28;20406;-46
2023/05/04 07:49:27;;;;;;;3.70;1.35;;;;;;;;;;5020109;28;20030;-42
2023/05/04 07:51:52;;;;;;;1.15;1.02;;;;;;;;;;5022500;28;20394;-43
2023/05/04 07:54:18;;;;;;;6.35;1.30;;;;;;;;;;5023423;28;20041;-45
2023/05/04 07:56:43;;;;;;;2.40;1.30;;;;;;;;;;5024134;28;20057;-45
2023/05/04 07:59:09;;;;;;;2.80;1.30;;;;;;;;;;5023941;28;20084;-47
2023/05/04 08:01:34;;;;;;;8.15;1.20;;;;;;;;;;5020841;28;20514;-49
2023/05/04 08:04:00;;;;;;;5.13;1.33;;;;;;;;;;5018893;28;20037;-46
2023/05/04 08:06:25;;;;;;;1.85;1.00;;;;;;;;;;5023845;28;20041;-42
2023/05/04 08:08:51;;;;;;;6.25;1.15;;;;;;;;;;5022172;28;20037;-44
2023/05/04 08:11:16;;;;;;;2.10;1.10;;;;;;;;;;5025114;28;20136;-45
2023/05/04 08:13:45;;;;;;;5.68;1.30;;;;;;;;;;5020020;28;20034;-49
2023/05/04 08:16:10;;;;;;;2.10;1.15;;;;;;;;;;5022578;28;20120;-45
2023/05/04 08:18:36;;;;;;;6.28;1.30;;;;;;;;;;5023269;28;20104;-44
2023/05/04 08:21:02;;;;;;;6.18;1.38;;;;;;;;;;5024290;28;20041;-44
2023/05/04 08:23:29;;;;;;;3.78;1.08;;;;;;;;;;5021779;28;21086;-48
2023/05/04 08:25:54;;;;;;;1.10;1.05;;;;;;;;;;5021764;28;20033;-45
2023/05/04 08:28:20;;;;;;;2.30;1.25;;;;;;;;;;5020492;28;20034;-47
2023/05/04 08:30:45;;;;;;;1.50;1.13;;;;;;;;;;5021961;28;20396;-48
2023/05/04 08:33:11;;;;;;;3.10;1.25;;;;;;;;;;5023416;28;20478;-42
2023/05/04 08:35:36;;;;;;;4.55;1.20;;;;;;;;;;5024665;28;20117;-43
2023/05/04 08:38:02;;;;;;;3.78;1.40;;;;;;;;;;5021083;28;20034;-46
2023/05/04 08:40:28;;;;;;;5.60;1.35;;;;;;;;;;5020545;28;20533;-44
2023/05/04 08:42:53;;;;;;;1.60;1.00;;;;;;;;;;5022115;28;20393;-47
2023/05/04 08:45:19;;;;;;;5.82;1.15;;;;;;;;;;5022647;28;20071;-47
2023/05/04 08:47:44;;;;;;;3.58;1.10;;;;;;;;;;5023112;28;20029;-45
2023/05/04 08:50:10;;;;;;;3.30;1.10;;;;;;;;;;5020148;28;20029;-43
2023/05/04 08:52:38;;;;;;;5.15;1.10;;;;;;;;;;5024474;28;20029;-49
2023/05/04 08:55:05;;;;;;;1.73;1.10;;;;;;;;;;5023611;28;20052;-49
2023/05/04 08:57:31;;;;;;;1.48;0.93;;;;;;;;;;5021255;28;20053;-47
2023/05/04 08:59:57;;;;;;;1.13;1.02;;;;;;;;;;5017519;28;20486;-47
2023/05/04 09:02:23;;;;;;;8.27;1.00;;;;;;;;;;5022436;28;20088;-45
2023/05/04 09:04:50;;;;;;;3.72;1.00;;;;;;;;;;5022902;28;20048;-42
2023/05/04 09:07:20;;;;;;;1.67;0.93;;;;;;;;;;5023496;28;20038;-42
2023/05/04 09:09:47;;;;;;;2.40;1.10;;;;;;;;;;5023262;28;20134;-42
2023/05/04 09:12:13;;;;;;;3.40;1.10;;;;;;;;;;5021368;28;20037;-42
2023/05/04 09:14:40;;;;;;;1.20;0.85;;;;;;;;;;5019440;28;20037;-42
2023/05/04 09:17:24;;;;;;;4.85;1.00;;;;;;;;;;5022684;28;20055;-42
2023/05/04 09:20:00;;;;;;;7.38;1.30;;;;;;;;;;5024234;28;20028;-41
2023/05/04 09:22:26;;;;;;;1.40;0.93;;;;;;;;;;5022642;28;20041;-42
2023/05/04 09:24:52;;;;;;;2.25;1.00;;;;;;;;;;5023242;28;20075;-42
2023/05/04 09:27:18;;;;;;;1.35;0.90;;;;;;;;;;5019172;28;20034;-45
2023/05/04 09:29:51;;;;;;;1.48;0.88;;;;;;;;;;5020150;28;20047;-42
2023/05/04 09:32:17;;;;;;;4.50;0.70;;;;;;;;;;5023745;28;20509;-41
2023/05/04 09:34:50;;;;;;;1.85;0.82;;;;;;;;;;5020002;28;20030;-41
2023/05/04 09:37:16;;;;;;;2.50;1.00;;;;;;;;;;5019939;28;20140;-42
2023/05/04 09:39:57;;;;;;;1.05;0.80;;;;;;;;;;5023695;28;20116;-42
2023/05/04 09:42:24;;;;;;;1.52;0.70;;;;;;;;;;5019704;28;20037;-44
2023/05/04 09:45:00;;;;;;;0.57;0.55;;;;;;;;;;5023407;28;20386;-41
2023/05/04 09:47:38;;;;;;;8.13;0.90;;;;;;;;;;5021455;28;20572;-43
2023/05/04 09:50:11;;;;;;;0.63;0.55;;;;;;;;;;5023103;28;20033;-42
2023/05/04 09:52:39;;;;;;;0.80;0.80;;;;;;;;;;5020142;28;20076;-42
2023/05/04 09:55:06;;;;;;;1.65;0.90;;;;;;;;;;5022190;28;20025;-43
2023/05/04 09:57:33;;;;;;;0.80;0.80;;;;;;;;;;5017822;28;20066;-43
2023/05/04 09:59:59;;;;;;;0.80;0.77;;;;;;;;;;5023714;28;20037;-43
2023/05/04 10:02:25;;;;;;;1.88;0.90;;;;;;;;;;5021466;28;20441;-44
2023/05/04 10:04:51;;;;;;;1.27;0.93;;;;;;;;;;5020706;28;20033;-42
2023/05/04 10:07:16;;;;;;;3.67;0.85;;;;;;;;;;5021731;28;20038;-42
2023/05/04 10:09:42;;;;;;;0.93;0.68;;;;;;;;;;5023170;28;20036;-42
2023/05/04 10:12:08;;;;;;;1.02;0.80;;;;;;;;;;5019521;28;20175;-42
2023/05/04 10:14:34;;;;;;;2.67;0.68;;;;;;;;;;5018045;28;20022;-45
2023/05/04 10:17:23;;;;;;;1.92;0.70;;;;;;;;;;5019865;28;20041;-44
2023/05/04 10:20:06;;;;;;;3.80;0.90;;;;;;;;;;5021341;28;20064;-41
2023/05/04 10:23:00;;;;;;;1.75;0.70;;;;;;;;;;5017976;28;20042;-43
2023/05/04 10:25:40;;;;;;;2.78;0.77;;;;;;;;;;5023152;28;20029;-42
2023/05/04 10:28:41;;;;;;;0.68;0.68;;;;;;;;;;5023354;28;20033;-42
2023/05/04 10:31:07;;;;;;;1.48;0.80;;;;;;;;;;5018467;28;20049;-44
2023/05/04 10:33:39;;;;;;;1.80;0.50;;;;;;;;;;5021449;28;20033;-44
2023/05/04 10:36:05;;;;;;;2.95;0.47;;;;;;;;;;5019573;28;20088;-42
2023/05/04 10:38:40;;;;;;;2.42;0.70;;;;;;;;;;5021165;28;20025;-45
2023/05/04 10:41:19;;;;;;;1.10;0.80;;;;;;;;;;5020143;28;20109;-45
2023/05/04 10:43:49;;;;;;;2.03;0.88;;;;;;;;;;5022200;28;20474;-44
2023/05/04 10:46:20;;;;;;;0.68;0.60;;;;;;;;;;5021498;28;20041;-42
2023/05/04 10:48:45;;;;;;;2.95;1.08;;;;;;;;;;5021449;28;20038;-45
2023/05/04 10:51:24;;;;;;;2.53;0.75;;;;;;;;;;5020961;28;20048;-42
2023/05/04 10:53:50;;;;;;;0.70;0.63;;;;;;;;;;5025636;28;20025;-42
2023/05/04 10:56:22;;;;;;;2.90;0.60;;;;;;;;;;5022339;28;20079;-43
2023/05/04 10:58:48;;;;;;;0.70;0.70;;;;;;;;;;5025757;28;20033;-42
2023/05/04 11:01:13;;;;;;;0.75;0.50;;;;;;;;;;5020706;28;20045;-42
2023/05/04 11:03:39;;;;;;;1.90;0.32;;;;;;;;;;5024913;28;20082;-42
2023/05/04 11:06:15;;;;;;;2.17;0.45;;;;;;;;;;5023482;28;20513;-42
2023/05/04 11:08:41;;;;;;;0.77;0.40;;;;;;;;;;5022936;28;20033;-43
2023/05/04 11:11:06;;;;;;;3.70;0.55;;;;;;;;;;5025493;28;20937;-45
2023/05/04 11:13:41;;;;;;;1.00;0.80;;;;;;;;;;5023705;28;20028;-46
2023/05/04 11:16:06;;;;;;;0.80;0.80;;;;;;;;;;5023274;28;20582;-43
2023/05/04 11:18:33;;;;;;;4.07;0.88;;;;;;;;;;5021769;28;20030;-42
2023/05/04 11:20:59;;;;;;;0.57;0.47;;;;;;;;;;5023742;28;20041;-44
2023/05/04 11:23:25;;;;;;;0.65;0.50;;;;;;;;;;5021816;28;20058;-44
2023/05/04 11:25:50;;;;;;;0.32;0.32;;;;;;;;;;5024919;28;20093;-42
2023/05/04 11:28:16;;;;;;;0.40;0.40;;;;;;;;;;5026130;28;20492;-43
2023/05/04 11:30:44;;;;;;;0.50;0.50;;;;;;;;;;5024043;28;20553;-45
2023/05/04 11:33:11;;;;;;;1.08;0.60;;;;;;;;;;5025059;28;20029;-45
2023/05/04 11:35:37;;;;;;;3.03;0.55;;;;;;;;;;5023048;28;20045;-42
2023/05/04 11:38:02;;;;;;;1.27;0.68;;;;;;;;;;5019811;28;20041;-44
2023/05/04 11:40:28;;;;;;;1.85;0.40;;;;;;;;;;5025414;28;20036;-48
2023/05/04 11:42:55;;;;;;;3.35;0.70;;;;;;;;;;5024671;28;20191;-44
2023/05/04 11:45:22;;;;;;;7.93;0.77;;;;;;;;;;5023979;28;20605;-43
2023/05/04 11:47:49;;;;;;;2.22;0.40;;;;;;;;;;5023058;28;20022;-44
2023/05/04 11:50:17;;;;;;;3.40;0.50;;;;;;;;;;5025109;28;20023;-45
2023/05/04 11:52:43;;;;;;;3.20;0.50;;;;;;;;;;5022168;28;20033;-43
2023/05/04 11:55:29;;;;;;;3.13;0.70;;;;;;;;;;5024574;28;20033;-42
2023/05/04 11:58:06;;;;;;;1.35;0.50;;;;;;;;;;5021348;28;20054;-44
2023/05/04 12:00:42;;;;;;;3.55;0.77;;;;;;;;;;5020352;28;20410;-44
2023/05/04 12:03:13;;;;;;;6.00;0.63;;;;;;;;;;5022877;28;20053;-44
2023/05/04 12:05:47;;;;;;;4.13;0.68;;;;;;;;;;5021263;28;20401;-43
2023/05/04 12:08:32;;;;;;;2.60;0.47;;;;;;;;;;5023301;28;20512;-42
2023/05/04 12:11:15;;;;;;;0.88;0.60;;;;;;;;;;5022804;28;20184;-43
2023/05/04 12:13:42;;;;;;;0.82;0.40;;;;;;;;;;5022316;28;20549;-42
2023/05/04 12:16:11;;;;;;;2.53;0.60;;;;;;;;;;5024003;28;20139;-42
2023/05/04 12:18:37;;;;;;;1.08;0.55;;;;;;;;;;5024369;28;20049;-43
2023/05/04 12:21:13;;;;;;;1.40;0.52;;;;;;;;;;5022192;28;20076;-46
2023/05/04 12:23:40;;;;;;;4.05;0.82;;;;;;;;;;5023636;28;20056;-43
2023/05/04 12:26:06;;;;;;;1.33;0.75;;;;;;;;;;5023430;28;20129;-44
2023/05/04 12:28:34;;;;;;;5.72;0.75;;;;;;;;;;5018895;28;20063;-42
2023/05/04 12:30:59;;;;;;;3.42;0.65;;;;;;;;;;5020176;28;20032;-45
2023/05/04 12:33:25;;;;;;;1.33;0.73;;;;;;;;;;5022157;28;20025;-42
2023/05/04 12:35:50;;;;;;;2.28;0.70;;;;;;;;;;5022720;28;20092;-43
2023/05/04 12:38:16;;;;;;;2.35;0.80;;;;;;;;;;5025313;28;20040;-43
2023/05/04 12:40:42;;;;;;;2.33;0.57;;;;;;;;;;5022813;28;20046;-42
2023/05/04 12:43:07;;;;;;;1.38;0.60;;;;;;;;;;5019693;28;20101;-42
2023/05/04 12:45:33;;;;;;;2.00;0.50;;;;;;;;;;5021673;28;20136;-42
2023/05/04 12:47:58;;;;;;;1.15;0.70;;;;;;;;;;5021193;28;20030;-44
2023/05/04 12:50:24;;;;;;;1.80;0.70;;;;;;;;;;5024491;28;20113;-42
2023/05/04 12:52:49;;;;;;;7.43;0.98;;;;;;;;;;5016505;28;20018;-45
2023/05/04 12:55:14;;;;;;;1.63;0.63;;;;;;;;;;5019163;28;20083;-42
2023/05/04 12:57:42;;;;;;;4.00;0.70;;;;;;;;;;5020700;28;20053;-41
2023/05/04 13:00:09;;;;;;;4.07;1.15;;;;;;;;;;5018787;28;20037;-42
2023/05/04 13:02:34;;;;;;;6.63;0.95;;;;;;;;;;5023839;28;20485;-43
2023/05/04 13:05:00;;;;;;;2.03;0.90;;;;;;;;;;5022107;28;20030;-42
2023/05/04 13:07:26;;;;;;;3.63;0.65;;;;;;;;;;5020072;28;20073;-46
2023/05/04 13:09:51;;;;;;;0.80;0.80;;;;;;;;;;5022588;28;20042;-42
2023/05/04 13:12:16;;;;;;;1.17;0.77;;;;;;;;;;5022458;28;20568;-42
2023/05/04 13:14:42;;;;;;;9.05;1.27;;;;;;;;;;5020213;28;20056;-45
2023/05/04 13:17:07;;;;;;;4.25;1.20;;;;;;;;;;5023424;28;20040;-42
2023/05/04 13:19:33;;;;;;;6.88;1.17;;;;;;;;;;5019697;28;20026;-43
2023/05/04 13:21:58;;;;;;;3.35;0.80;;;;;;;;;;5021579;28;20075;-42
2023/05/04 13:24:23;;;;;;;3.25;0.80;;;;;;;;;;5024171;28;20025;-43
2023/05/04 13:26:49;;;;;;;11.95;0.98;;;;;;;;;;5021618;28;20069;-42
2023/05/04 13:29:14;;;;;;;1.02;0.65;;;;;;;;;;5022988;28;20036;-44
2023/05/04 13:31:40;;;;;;;2.28;0.90;;;;;;;;;;5021605;28;20029;-42
2023/05/04 13:34:06;;;;;;;5.53;0.65;;;;;;;;;;5022763;28;20441;-44
2023/05/04 13:36:31;;;;;;;4.40;0.90;;;;;;;;;;5020598;28;20037;-42
2023/05/04 13:38:57;;;;;;;1.85;0.70;;;;;;;;;;5020902;28;20446;-44
2023/05/04 13:41:23;;;;;;;3.55;0.90;;;;;;;;;;5021989;28;20097;-42
2023/05/04 13:43:48;;;;;;;8.45;1.08;;;;;;;;;;5022206;28;20037;-45
2023/05/04 13:46:14;;;;;;;2.55;0.52;;;;;;;;;;5022683;28;20121;-42
2023/05/04 13:48:39;;;;;;;4.07;0.93;;;;;;;;;;5019958;28;20557;-46
2023/05/04 13:51:04;;;;;;;2.15;1.02;;;;;;;;;;5017353;28;20489;-43
2023/05/04 13:53:30;;;;;;;4.25;0.85;;;;;;;;;;5022922;28;20104;-43
2023/05/04 13:55:55;;;;;;;3.92;1.60;;;;;;;;;;5018743;28;20093;-43
2023/05/04 13:58:21;;;;;;;3.92;1.08;;;;;;;;;;5021720;28;20052;-46
2023/05/04 14:00:46;;;;;;;5.18;1.60;;;;;;;;;;5021244;28;20038;-42
2023/05/04 14:03:11;;;;;;;1.60;0.77;;;;;;;;;;5020973;28;20025;-45
2023/05/04 14:05:37;;;;;;;3.92;0.85;;;;;;;;;;5020779;28;20034;-45
2023/05/04 14:08:02;;;;;;;7.63;0.82;;;;;;;;;;5021427;28;20367;-43
2023/05/04 14:10:28;;;;;;;2.53;0.65;;;;;;;;;;5019764;28;20021;-45
2023/05/04 14:12:53;;;;;;;5.95;0.93;;;;;;;;;;5021978;28;20032;-42
2023/05/04 14:15:21;;;;;;;1.23;0.80;;;;;;;;;;5020899;28;20029;-42
2023/05/04 14:17:47;;;;;;;7.22;0.90;;;;;;;;;;5021368;28;20147;-45
2023/05/04 14:20:12;;;;;;;3.80;0.80;;;;;;;;;;5021730;28;20381;-42
2023/05/04 14:22:40;;;;;;;2.38;0.63;;;;;;;;;;5019506;28;20025;-43
2023/05/04 14:25:05;;;;;;;2.40;0.82;;;;;;;;;;5022218;28;20036;-44
2023/05/04 14:27:34;;;;;;;1.83;0.68;;;;;;;;;;5023317;28;20136;-47
2023/05/04 14:29:59;;;;;;;1.63;0.73;;;;;;;;;;5023650;28;20099;-43
2023/05/04 14:32:25;;;;;;;4.28;1.08;;;;;;;;;;5024943;28;20041;-46
2023/05/04 14:34:50;;;;;;;1.60;0.60;;;;;;;;;;5027590;28;20204;-43
2023/05/04 14:37:16;;;;;;;2.05;0.55;;;;;;;;;;5025009;28;20048;-42
2023/05/04 14:39:41;;;;;;;1.83;0.70;;;;;;;;;;5024931;28;20545;-44
2023/05/04 14:42:07;;;;;;;1.13;0.60;;;;;;;;;;5022750;28;20052;-42